Nearby METAR Reports

 

PAEN - Kenai, Alaska, USA
Distance from station: ESE 2mi, 4km
Updated: Mon, 17-Dec-2018 6:53am AKST
Overcast
Overcast
 Wind from S
Wind: S 9 mph , 15 km/h
Temperature: 27°F , -3°C
Wind Chill: 18°F , -8°C
Dew Point: 25°F , -4°C
Humidity: 93%
Barometer: 28.86 inHg , 977.3 hPa
Clouds: Overcast
Visibility: 10 miles , 16 km
Cloud details: Partly cloudy 2000 ft
Overcast 2700 ft
2018/12/17 15:53 PAEN 171553Z 19008KT 10SM SCT020 OVC027 M03/M04 A2886 RMK AO2 SLP775 T10281044 $
PASX - Soldotna, Alaska, USA
Distance from station: SE 12mi, 19km
Updated: Mon, 17-Dec-2018 6:56am AKST
Mist, Overcast
Mist, Overcast
 Wind from SSW
Wind: SSW 3 mph , 6 km/h
Temperature: 27°F , -3°C
Dew Point: 23°F , -5°C
Humidity: 86%
Barometer: 28.88 inHg , 978 hPa
Summary: Mist
Clouds: Overcast
Visibility: 6 miles , 10 km
Cloud details: Overcast 2600 ft
2018/12/17 15:56 PASX 171556Z AUTO 21003KT 6SM BR OVC026 M03/M05 A2888 RMK AO2 SNE00 SLP788 P0000 T10331050 FZRANO
 
PANC - Anchorage Intl, Alaska, USA
Distance from station: NE 59mi, 96km
Updated: Mon, 17-Dec-2018 7:23am AKST
Mist, Overcast
Mist, Overcast
 Wind from S
Wind: S 7 mph , 11 km/h
Temperature: 28°F , -2°C
Wind Chill: 21°F , -6°C
Dew Point: 27°F , -3°C
Humidity: 93%
Barometer: 28.86 inHg , 977.3 hPa
Summary: Mist
Clouds: Overcast
Visibility: 2 miles , 3 km
Cloud details: Few Clouds 500 ft
Overcast 2600 ft
2018/12/17 16:23 PANC 171623Z 19006KT 2SM BR FEW005 OVC026 M02/M03 A2886 RMK AO2 I1001 T10171033
PALH - Anchorage/Lake H, Alaska, USA
Distance from station: NE 61mi, 99km
Updated: Mon, 17-Dec-2018 7:23am AKST
Mist, Overcast
Mist, Overcast
 Wind from SSW
Wind: SSW 5 mph , 7 km/h
Temperature: 27°F , -3°C
Wind Chill: 21°F , -6°C
Dew Point: 25°F , -4°C
Humidity: 93%
Barometer: 28.87 inHg , 977.6 hPa
Summary: Mist
Clouds: Overcast
Visibility: 2 miles , 3 km
Cloud details: Few Clouds 500 ft
Overcast 2700 ft
2018/12/17 16:23 PALH 171623Z 21004KT 2SM BR FEW005 OVC027 M03/M04 A2887 RMK AO2 SFC VIS 4 I1000 T10281039
 
PAHO - Homer, Alaska, USA
Distance from station: S 66mi, 106km
Updated: Mon, 17-Dec-2018 6:53am AKST
Overcast
Overcast
 Wind from W
Wind: W 9 mph , 15 km/h
Temperature: 25°F , -4°C
Wind Chill: 16°F , -9°C
Dew Point: 19°F , -7°C
Humidity: 80%
Barometer: 28.89 inHg , 978.3 hPa
Clouds: Overcast
Visibility: 10 miles , 16 km
Cloud details: Overcast 1300 ft
2018/12/17 15:53 PAHO 171553Z 27008KT 10SM OVC013 M04/M07 A2889 RMK AO2 SLP785 T10441067 $
PAMR - Anchorage/Merril, Alaska, USA
Distance from station: NE 66mi, 106km
Updated: Mon, 17-Dec-2018 6:53am AKST
Mist, Overcast
Mist, Overcast
 Wind from S
Wind: S 3 mph , 6 km/h
Temperature: 27°F , -3°C
Dew Point: 25°F , -4°C
Humidity: 93%
Barometer: 28.85 inHg , 977 hPa
Summary: Mist
Clouds: Overcast
Visibility: 2 miles , 3 km
Cloud details: Mostly cloudy 500 ft
Overcast 1400 ft
2018/12/17 15:53 PAMR 171553Z 18003KT 2SM BR BKN005 OVC014 M03/M04 A2885 RMK AO2 SLP772 SNE51 P0001 T10331039
 
PAED - Elmendorf Afb, Alaska, USA
Distance from station: NE 69mi, 110km
Updated: Mon, 17-Dec-2018 6:55am AKST
Light snow, Overcast
Light snow, Overcast
 Wind from calm
Wind: Calm
Temperature: 27°F , -3°C
Dew Point: 27°F , -3°C
Humidity: 100%
Barometer: 28.84 inHg , 976.6 hPa
Summary: Light Snow
Clouds: Overcast
Visibility: 3 miles , 5 km
Cloud details: Overcast 400 ft
2018/12/17 15:55 PAED 171555Z 00000KT 3SM -SN OVC004 M03/M03 A2884 RMK SLP764 P0000 T10311031
PAWD - Seward, Alaska, USA
Distance from station: ESE 71mi, 115km
Updated: Mon, 17-Dec-2018 6:53am AKST
Overcast
Overcast
 
Temperature: 28°F , -2°C
Dew Point: 25°F , -4°C
Humidity: 86%
Barometer: 28.82 inHg , 976 hPa
Clouds: Overcast
Visibility: 10 miles , 16 km
Cloud details: Overcast 4400 ft
2018/12/17 15:53 PAWD 171553Z AUTO 10SM UP OVC044 M02/M04 A2882 RMK AO2 UPB45 SLP761 P0000 T10171044 TSNO $
 
PASC - Deadhorse, Alaska, USA
Distance from station: ENE 670mi, 1078km
Updated: Mon, 17-Dec-2018 6:53am AKST
Overcast
Overcast
 Wind from W
Wind: W 13 mph , 20 km/h
Temperature: -8°F , -22°C
Wind Chill: -28°F , -33°C
Dew Point: -11°F , -24°C
Humidity: 84%
Barometer: 29.39 inHg , 995.3 hPa
Clouds: Overcast
Visibility: 10 miles , 16 km
Cloud details: Few Clouds 1600 ft
Overcast 2100 ft
2018/12/17 15:53 PASC 171553Z 27011KT 10SM FEW016 OVC021 M22/M24 A2939 RMK SLP955 I1000 T12221244 VIA AUTODIAL
PAAD - Point Thomson, Alaska, USA
Distance from station: ENE 680mi, 1094km
Updated: Mon, 17-Dec-2018 7:35am AKST
Mist, Overcast
Mist, Overcast
 Wind from WSW
Wind: WSW 15 mph , 24 km/h
Temperature: -9°F , -23°C
Wind Chill: -31°F , -35°C
Dew Point: -13°F , -25°C
Humidity: 84%
Barometer: 29.40 inHg , 995.6 hPa
Summary: Mist
Clouds: Overcast
Visibility: 2 1/2 miles , 4 km
Cloud details: Partly cloudy 300 ft
Overcast 2300 ft
2018/12/17 16:35 PAAD 171635Z AUTO 25013KT 2 1/2SM BR SCT003 OVC023 M23/M25 A2940 RMK AO2 T12261251


kenaipeople.com website

Dans Automotive

Lower Peninsula Power Sports

Freddies RoadHouse

Alaska Weather Net